Time;durP1;ratioP1;P1;durP2;ratioP2;P2;SDS_P1;SDS_P2;PMS_P1;PMS_P2;Temp;Humidity;BMP_temperature;BMP_pressure;BME280_temperature;BME280_humidity;BME280_pressure;Samples;Min_cycle;Max_cycle;Signal;HPM_P1;HPM_P2
2021/04/02 00:01:52;;;;;;;9.87;2.90;;;6.30;75.90;;;;;;5077145;28;20036;-72
2021/04/02 00:04:18;;;;;;;10.33;2.40;;;6.20;75.80;;;;;;5076901;28;20069;-72
2021/04/02 00:06:43;;;;;;;11.37;2.77;;;6.20;75.80;;;;;;5076680;28;20504;-73
2021/04/02 00:09:11;;;;;;;11.53;2.40;;;6.10;76.20;;;;;;5095348;28;20433;-73
2021/04/02 00:11:37;;;;;;;10.30;2.23;;;6.10;76.10;;;;;;5094822;28;20069;-73
2021/04/02 00:14:03;;;;;;;6.93;2.77;;;6.10;76.30;;;;;;5095214;28;20039;-73
2021/04/02 00:16:28;;;;;;;8.57;2.60;;;6.10;76.70;;;;;;5060137;28;20066;-74
2021/04/02 00:18:54;;;;;;;10.53;2.70;;;6.00;76.50;;;;;;5076862;28;20028;-75
2021/04/02 00:21:20;;;;;;;10.17;2.50;;;5.90;76.90;;;;;;5094989;28;20462;-73
2021/04/02 00:23:45;;;;;;;11.27;2.57;;;5.90;76.80;;;;;;5076773;28;20052;-73
2021/04/02 00:26:20;;;;;;;9.30;2.60;;;5.90;76.80;;;;;;5076974;28;20020;-72
2021/04/02 00:28:47;;;;;;;9.63;2.30;;;5.80;76.90;;;;;;5094909;28;20024;-72
2021/04/02 00:31:13;;;;;;;13.10;2.13;;;5.80;77.20;;;;;;5094905;28;20017;-72
2021/04/02 00:33:39;;;;;;;7.30;2.23;;;5.80;77.50;;;;;;5076329;28;20369;-72
2021/04/02 00:36:06;;;;;;;6.10;2.43;;;5.80;77.40;;;;;;5076453;28;20012;-73
2021/04/02 00:38:32;;;;;;;14.77;1.97;;;5.70;77.60;;;;;;5094341;28;20529;-73
2021/04/02 00:41:01;;;;;;;6.03;2.00;;;5.70;77.70;;;;;;5094558;28;20456;-74
2021/04/02 00:43:30;;;;;;;9.10;2.37;;;5.70;77.80;;;;;;5094546;28;20027;-74
2021/04/02 00:45:55;;;;;;;10.47;2.73;;;5.60;78.00;;;;;;5075996;28;20115;-73
2021/04/02 00:48:21;;;;;;;9.07;2.50;;;5.60;78.10;;;;;;5094796;28;20430;-72
2021/04/02 00:50:58;;;;;;;9.70;2.37;;;5.60;78.30;;;;;;5076420;28;20410;-73
2021/04/02 00:53:29;;;;;;;8.37;2.63;;;5.50;78.40;;;;;;5076258;28;20052;-72
2021/04/02 00:55:55;;;;;;;10.43;2.23;;;5.40;78.70;;;;;;5075616;28;20114;-72
2021/04/02 00:58:23;;;;;;;8.77;2.50;;;5.40;78.60;;;;;;5076371;28;20024;-72
2021/04/02 01:00:49;;;;;;;13.73;2.60;;;5.40;78.90;;;;;;5074200;28;20551;-72
2021/04/02 01:03:15;;;;;;;7.13;2.63;;;5.30;78.80;;;;;;5075909;28;20067;-72
2021/04/02 01:05:45;;;;;;;11.53;2.80;;;5.30;78.90;;;;;;5054906;28;20585;-72
2021/04/02 01:08:19;;;;;;;9.17;3.03;;;5.30;79.40;;;;;;5073190;28;20039;-73
2021/04/02 01:10:47;;;;;;;10.53;2.90;;;5.20;79.50;;;;;;5073464;28;20051;-72
2021/04/02 01:13:17;;;;;;;10.13;3.17;;;5.20;80.20;;;;;;5073773;28;20087;-72
2021/04/02 01:15:53;;;;;;;7.03;2.30;;;5.20;80.60;;;;;;5055769;28;20020;-72
2021/04/02 01:18:35;;;;;;;13.80;3.40;;;5.10;80.50;;;;;;5073884;28;20025;-73
2021/04/02 01:21:10;;;;;;;9.93;2.70;;;5.10;80.20;;;;;;5055633;28;20020;-73
2021/04/02 01:23:53;;;;;;;8.73;2.60;;;5.10;80.70;;;;;;5073818;28;20025;-72
2021/04/02 01:26:36;;;;;;;12.67;2.97;;;5.00;81.20;;;;;;5074090;28;20108;-73
2021/04/02 01:29:14;;;;;;;12.23;3.87;;;5.00;81.60;;;;;;5073706;28;20024;-73
2021/04/02 01:31:47;;;;;;;8.37;2.83;;;4.90;82.90;;;;;;5055784;28;20032;-73
2021/04/02 01:34:14;;;;;;;10.20;2.70;;;4.90;82.50;;;;;;5055508;28;20078;-72
2021/04/02 01:36:42;;;;;;;11.40;2.70;;;4.80;82.50;;;;;;5073961;28;20356;-73
2021/04/02 01:39:12;;;;;;;14.03;3.23;;;4.80;82.90;;;;;;5055810;28;20032;-73
2021/04/02 01:41:41;;;;;;;10.87;2.70;;;4.80;82.90;;;;;;5073339;28;20099;-73
2021/04/02 01:44:07;;;;;;;12.03;3.17;;;4.80;83.20;;;;;;5073600;28;20025;-73
2021/04/02 01:46:36;;;;;;;13.13;3.70;;;4.70;83.60;;;;;;5073611;28;20028;-73
2021/04/02 01:49:03;;;;;;;10.17;2.93;;;4.70;84.10;;;;;;5055098;28;20379;-73
2021/04/02 01:51:31;;;;;;;10.13;2.90;;;4.70;83.80;;;;;;5072927;28;20056;-73
2021/04/02 01:53:59;;;;;;;8.73;2.50;;;4.60;84.50;;;;;;5072985;28;20024;-73
2021/04/02 01:56:27;;;;;;;11.73;2.57;;;4.60;84.00;;;;;;5054992;28;20345;-73
2021/04/02 01:58:55;;;;;;;7.47;2.23;;;4.50;84.10;;;;;;5055446;28;20025;-73
2021/04/02 02:01:26;;;;;;;10.63;2.90;;;4.50;84.10;;;;;;5072860;28;20107;-72
2021/04/02 02:03:55;;;;;;;9.80;2.90;;;4.50;84.40;;;;;;5054890;28;20373;-73
2021/04/02 02:06:23;;;;;;;13.17;2.30;;;4.50;84.90;;;;;;5054756;28;20116;-73
2021/04/02 02:08:52;;;;;;;15.03;2.73;;;4.50;84.10;;;;;;5072839;28;20055;-75
2021/04/02 02:11:19;;;;;;;6.87;1.87;;;4.40;84.10;;;;;;5055238;28;20044;-73
2021/04/02 02:14:03;;;;;;;9.33;2.57;;;4.40;84.00;;;;;;5054963;28;20012;-73
2021/04/02 02:16:30;;;;;;;8.70;2.33;;;4.30;84.70;;;;;;5055019;28;20090;-73
2021/04/02 02:18:58;;;;;;;9.20;2.57;;;4.30;85.40;;;;;;5073384;28;20021;-73
2021/04/02 02:21:25;;;;;;;9.47;2.30;;;4.30;84.90;;;;;;5054863;28;20438;-72
2021/04/02 02:23:51;;;;;;;7.80;1.80;;;4.30;84.90;;;;;;5073492;28;20368;-72
2021/04/02 02:26:18;;;;;;;7.20;1.90;;;4.20;85.10;;;;;;5055419;28;20025;-72
2021/04/02 02:28:44;;;;;;;10.03;2.17;;;4.20;84.80;;;;;;5055102;28;20031;-73
2021/04/02 02:31:12;;;;;;;8.63;2.43;;;4.20;85.20;;;;;;5041048;28;20384;-73
2021/04/02 02:33:38;;;;;;;9.73;2.20;;;4.20;85.20;;;;;;5058994;28;20021;-72
2021/04/02 02:36:05;;;;;;;5.87;2.33;;;4.20;84.90;;;;;;5058790;28;20028;-72
2021/04/02 02:38:31;;;;;;;10.73;2.73;;;4.20;85.00;;;;;;5076503;28;20396;-72
2021/04/02 02:40:57;;;;;;;14.30;2.70;;;4.20;85.80;;;;;;5058775;28;20464;-72
2021/04/02 02:43:23;;;;;;;11.30;2.27;;;4.20;86.00;;;;;;5076557;28;20469;-72
2021/04/02 02:45:49;;;;;;;11.47;2.53;;;4.10;85.80;;;;;;5076620;28;20082;-72
2021/04/02 02:48:14;;;;;;;9.47;1.97;;;4.10;86.50;;;;;;5076744;28;20519;-72
2021/04/02 02:50:45;;;;;;;11.73;1.73;;;4.10;85.90;;;;;;5058513;28;20055;-73
2021/04/02 02:53:15;;;;;;;7.63;2.13;;;4.10;86.00;;;;;;5058531;28;20538;-72
2021/04/02 02:55:42;;;;;;;9.27;1.87;;;4.10;86.10;;;;;;5042156;28;20376;-74
2021/04/02 02:58:09;;;;;;;8.60;1.93;;;4.00;86.10;;;;;;5058652;28;20172;-73
2021/04/02 03:00:39;;;;;;;9.10;1.90;;;4.00;86.20;;;;;;5058486;28;20025;-73
2021/04/02 03:03:13;;;;;;;8.93;1.97;;;4.00;86.20;;;;;;5076151;28;20025;-73
2021/04/02 03:05:39;;;;;;;6.35;1.92;;;4.00;85.90;;;;;;5076074;28;20530;-72
2021/04/02 03:08:07;;;;;;;7.23;2.10;;;4.00;86.50;;;;;;5041782;28;20443;-73
2021/04/02 03:10:35;;;;;;;6.13;1.90;;;4.00;86.30;;;;;;5076274;28;20028;-73
2021/04/02 03:13:02;;;;;;;11.93;2.17;;;3.90;86.50;;;;;;5075949;28;20166;-73
2021/04/02 03:15:30;;;;;;;6.33;1.80;;;3.90;86.10;;;;;;5075968;28;20029;-72
2021/04/02 03:18:07;;;;;;;12.67;3.77;;;3.90;85.80;;;;;;5075854;28;20041;-73
2021/04/02 03:20:34;;;;;;;10.63;1.73;;;3.90;86.70;;;;;;5057877;28;20177;-73
2021/04/02 03:23:01;;;;;;;11.37;2.20;;;3.90;86.60;;;;;;5076137;28;20056;-73
2021/04/02 03:25:29;;;;;;;8.63;2.00;;;3.90;87.10;;;;;;5058294;28;20033;-72
2021/04/02 03:27:55;;;;;;;8.97;2.13;;;3.90;86.80;;;;;;5057883;28;20078;-75
2021/04/02 03:30:22;;;;;;;5.67;1.80;;;3.90;87.20;;;;;;5075849;28;20502;-75
2021/04/02 03:32:53;;;;;;;11.27;2.27;;;3.90;86.90;;;;;;5075374;28;20037;-76
2021/04/02 03:35:20;;;;;;;8.23;2.63;;;3.90;87.00;;;;;;5075328;28;20379;-75
2021/04/02 03:37:48;;;;;;;5.87;1.77;;;3.90;87.60;;;;;;5075490;28;20031;-78
2021/04/02 03:40:17;;;;;;;7.57;1.90;;;3.80;87.40;;;;;;5075443;28;20109;-76
2021/04/02 03:42:46;;;;;;;8.20;2.73;;;3.90;87.30;;;;;;5074563;28;20078;-75
2021/04/02 03:45:13;;;;;;;6.37;1.90;;;3.90;87.00;;;;;;5075255;28;20032;-76
2021/04/02 03:47:42;;;;;;;6.87;2.30;;;3.90;87.70;;;;;;5075354;28;20082;-76
2021/04/02 03:50:10;;;;;;;8.37;2.27;;;3.90;87.60;;;;;;5057176;28;20028;-76
2021/04/02 03:52:45;;;;;;;7.33;2.13;;;3.80;87.50;;;;;;5075184;28;20024;-76
2021/04/02 03:55:18;;;;;;;7.50;2.17;;;3.80;87.60;;;;;;5075031;28;20024;-76
2021/04/02 03:57:45;;;;;;;8.73;1.77;;;3.80;87.40;;;;;;5057132;28;20093;-76
2021/04/02 04:00:21;;;;;;;8.50;1.70;;;3.80;87.50;;;;;;5040652;28;20035;-76
2021/04/02 04:02:49;;;;;;;6.67;1.77;;;3.80;87.40;;;;;;5056648;28;20021;-72
2021/04/02 04:05:16;;;;;;;6.27;1.73;;;3.80;87.10;;;;;;5074633;28;20380;-76
2021/04/02 04:07:44;;;;;;;14.37;2.33;;;3.80;87.50;;;;;;5074525;28;20044;-75
2021/04/02 04:10:16;;;;;;;7.33;2.63;;;3.80;88.10;;;;;;5056773;28;20495;-76
2021/04/02 04:12:44;;;;;;;12.00;3.03;;;3.90;88.60;;;;;;5075165;28;20042;-75
2021/04/02 04:15:13;;;;;;;6.63;2.37;;;3.90;89.10;;;;;;5074819;28;20030;-76
2021/04/02 04:17:41;;;;;;;9.87;2.70;;;3.90;88.10;;;;;;5040637;28;20036;-75
2021/04/02 04:20:10;;;;;;;8.53;2.50;;;3.90;88.60;;;;;;5074926;28;20039;-74
2021/04/02 04:22:39;;;;;;;9.87;2.00;;;3.90;88.40;;;;;;5074684;28;20043;-73
2021/04/02 04:25:08;;;;;;;6.83;2.17;;;3.90;88.70;;;;;;5056964;28;20498;-73
2021/04/02 04:27:38;;;;;;;9.67;2.63;;;3.90;88.90;;;;;;5056822;28;20166;-73
2021/04/02 04:30:05;;;;;;;14.43;2.93;;;3.90;89.30;;;;;;5056599;28;20037;-73
2021/04/02 04:32:32;;;;;;;7.70;2.47;;;3.90;89.30;;;;;;5074635;28;20029;-73
2021/04/02 04:34:59;;;;;;;7.57;3.10;;;3.90;89.50;;;;;;5039709;28;20032;-73
2021/04/02 04:37:27;;;;;;;8.33;2.33;;;3.90;90.10;;;;;;5040096;28;20032;-73
2021/04/02 04:39:55;;;;;;;8.13;2.67;;;3.90;89.90;;;;;;5056497;28;20102;-73
2021/04/02 04:42:22;;;;;;;7.10;2.30;;;3.90;89.90;;;;;;5056551;28;20020;-73
2021/04/02 04:44:53;;;;;;;13.20;2.63;;;3.80;89.60;;;;;;5074223;28;20535;-73
2021/04/02 04:47:19;;;;;;;10.57;2.63;;;3.90;89.50;;;;;;5074255;28;20033;-73
2021/04/02 04:49:45;;;;;;;6.80;2.90;;;3.80;89.50;;;;;;5039629;28;20869;-73
2021/04/02 04:52:14;;;;;;;12.27;2.47;;;3.80;89.30;;;;;;5074267;28;20093;-73
2021/04/02 04:54:42;;;;;;;14.90;3.60;;;4.00;89.40;;;;;;5057894;28;20020;-73
2021/04/02 04:57:10;;;;;;;9.47;2.63;;;3.80;88.80;;;;;;5066948;28;20028;-73
2021/04/02 04:59:38;;;;;;;8.03;2.33;;;3.90;89.00;;;;;;5085915;28;20051;-73
2021/04/02 05:02:06;;;;;;;10.37;2.97;;;3.80;89.00;;;;;;5059218;28;20209;-72
2021/04/02 05:04:31;;;;;;;12.67;2.90;;;3.80;88.90;;;;;;5078198;28;20120;-74
2021/04/02 05:07:00;;;;;;;6.97;2.03;;;3.80;88.70;;;;;;5082510;28;20498;-72
2021/04/02 05:09:28;;;;;;;9.50;2.60;;;3.90;88.80;;;;;;5093148;28;20070;-72
2021/04/02 05:11:55;;;;;;;11.07;3.10;;;3.90;88.60;;;;;;5058809;28;20028;-73
2021/04/02 05:14:22;;;;;;;7.27;2.20;;;3.90;88.80;;;;;;5086750;28;20070;-73
2021/04/02 05:16:49;;;;;;;7.93;2.17;;;3.90;88.70;;;;;;5073709;28;20047;-73
2021/04/02 05:19:17;;;;;;;10.80;2.63;;;3.90;88.60;;;;;;5038384;28;20036;-72
2021/04/02 05:21:44;;;;;;;10.27;2.70;;;3.90;88.50;;;;;;5073031;28;20020;-73
2021/04/02 05:24:10;;;;;;;13.20;2.70;;;3.90;88.60;;;;;;5039313;28;20111;-73
2021/04/02 05:26:36;;;;;;;6.87;2.20;;;3.90;88.50;;;;;;5074003;28;20036;-73
2021/04/02 05:29:02;;;;;;;8.27;2.83;;;3.90;89.00;;;;;;5073466;28;20428;-73
2021/04/02 05:31:29;;;;;;;6.80;2.10;;;4.00;89.10;;;;;;5055703;28;20363;-74
2021/04/02 05:33:55;;;;;;;9.07;2.83;;;4.00;88.60;;;;;;5039215;28;20076;-73
2021/04/02 05:36:21;;;;;;;10.47;2.73;;;4.00;88.70;;;;;;5055632;28;20067;-73
2021/04/02 05:38:46;;;;;;;14.17;2.87;;;4.00;88.70;;;;;;5055487;28;20032;-73
2021/04/02 05:41:23;;;;;;;5.50;2.67;;;4.00;88.60;;;;;;5039134;28;20021;-73
2021/04/02 05:44:01;;;;;;;6.30;2.20;;;4.10;88.80;;;;;;5073533;28;20028;-73
2021/04/02 05:46:26;;;;;;;9.50;2.23;;;4.10;88.70;;;;;;5073177;28;20032;-72
2021/04/02 05:49:00;;;;;;;5.77;2.27;;;4.10;88.50;;;;;;5073455;28;20392;-73
2021/04/02 05:51:27;;;;;;;6.22;1.90;;;4.10;88.40;;;;;;5073634;28;20104;-73
2021/04/02 05:53:55;;;;;;;7.63;2.13;;;4.20;88.30;;;;;;5055175;28;20071;-73
2021/04/02 05:56:21;;;;;;;7.73;2.43;;;4.20;88.30;;;;;;5073428;28;20480;-73
2021/04/02 05:58:47;;;;;;;8.10;2.10;;;4.20;88.20;;;;;;5072937;28;20050;-72
2021/04/02 06:01:13;;;;;;;8.83;1.70;;;4.20;88.20;;;;;;5055237;28;20032;-73
2021/04/02 06:03:39;;;;;;;10.33;2.53;;;4.30;88.80;;;;;;5038497;28;20027;-73
2021/04/02 06:06:08;;;;;;;7.93;1.90;;;4.30;88.20;;;;;;5057145;28;20053;-73
2021/04/02 06:08:34;;;;;;;10.57;1.90;;;4.30;88.40;;;;;;5059049;28;20024;-72
2021/04/02 06:11:00;;;;;;;11.00;2.20;;;4.30;88.20;;;;;;5077081;28;20044;-72
2021/04/02 06:13:27;;;;;;;10.30;2.40;;;4.40;88.20;;;;;;5042532;28;20364;-72
2021/04/02 06:15:53;;;;;;;6.23;1.87;;;4.40;88.10;;;;;;5059264;28;20032;-76
2021/04/02 06:18:24;;;;;;;9.27;2.07;;;4.50;88.20;;;;;;5058813;28;20032;-73
2021/04/02 06:20:51;;;;;;;8.10;1.97;;;4.50;88.10;;;;;;5076569;28;20021;-71
2021/04/02 06:23:18;;;;;;;5.83;1.67;;;4.50;88.00;;;;;;5076439;28;20028;-72
2021/04/02 06:25:51;;;;;;;11.37;2.20;;;4.60;87.90;;;;;;5096323;28;20032;-77
2021/04/02 06:28:27;;;;;;;8.55;1.85;;;4.60;87.90;;;;;;5077908;28;20032;-73
2021/04/02 06:30:55;;;;;;;7.43;1.63;;;4.60;88.00;;;;;;5093872;28;20032;-73
2021/04/02 06:33:21;;;;;;;8.07;2.40;;;4.70;88.00;;;;;;5077702;28;20024;-73
2021/04/02 06:35:47;;;;;;;8.70;3.03;;;4.70;88.50;;;;;;5096584;28;20035;-77
2021/04/02 06:38:13;;;;;;;9.00;2.60;;;4.80;88.70;;;;;;5097155;28;20341;-77
2021/04/02 06:40:38;;;;;;;9.57;2.20;;;4.80;88.20;;;;;;5097037;28;20028;-77
2021/04/02 06:43:05;;;;;;;7.27;2.00;;;4.80;88.20;;;;;;5078814;28;20028;-77
2021/04/02 06:45:31;;;;;;;12.93;2.13;;;4.80;88.30;;;;;;5096666;28;20073;-77
2021/04/02 06:48:10;;;;;;;8.73;2.17;;;4.90;88.20;;;;;;5097109;28;20429;-77
2021/04/02 06:50:37;;;;;;;12.37;2.77;;;4.90;88.20;;;;;;5078854;28;20333;-76
2021/04/02 06:53:04;;;;;;;10.87;1.80;;;5.00;88.40;;;;;;5078514;28;20024;-77
2021/04/02 06:55:31;;;;;;;14.83;2.50;;;5.00;88.40;;;;;;5096843;28;20099;-77
2021/04/02 06:58:05;;;;;;;13.90;2.73;;;5.00;88.70;;;;;;5096524;28;20039;-76
2021/04/02 07:00:35;;;;;;;11.03;2.53;;;5.10;88.80;;;;;;5097531;28;20026;-76
2021/04/02 07:03:02;;;;;;;8.50;2.03;;;5.30;88.80;;;;;;5096724;28;20107;-76
2021/04/02 07:05:30;;;;;;;9.50;1.90;;;5.20;88.60;;;;;;5072790;28;20081;-76
2021/04/02 07:08:06;;;;;;;10.33;2.80;;;5.20;88.40;;;;;;5096121;28;20051;-76
2021/04/02 07:10:34;;;;;;;11.13;2.47;;;5.30;88.50;;;;;;5075972;28;20459;-76
2021/04/02 07:13:05;;;;;;;12.50;2.10;;;5.30;88.40;;;;;;5096274;28;20024;-76
2021/04/02 07:15:33;;;;;;;16.53;2.87;;;5.40;88.30;;;;;;5077792;28;20085;-77
2021/04/02 07:18:00;;;;;;;9.40;2.10;;;5.40;88.20;;;;;;5077063;28;20375;-76
2021/04/02 07:20:27;;;;;;;12.63;1.67;;;5.50;88.30;;;;;;5078055;28;20469;-76
2021/04/02 07:22:53;;;;;;;12.90;1.93;;;5.50;88.10;;;;;;5059514;28;20031;-76
2021/04/02 07:25:20;;;;;;;11.80;1.77;;;5.60;87.80;;;;;;5078267;28;20034;-77
2021/04/02 07:27:46;;;;;;;8.00;1.90;;;5.60;87.70;;;;;;5061195;28;20434;-77
2021/04/02 07:30:14;;;;;;;12.90;2.43;;;5.70;87.60;;;;;;5095888;28;20077;-77
2021/04/02 07:32:41;;;;;;;9.30;2.00;;;5.70;87.30;;;;;;5077943;28;20032;-77
2021/04/02 07:35:14;;;;;;;9.53;1.90;;;5.90;87.10;;;;;;5095655;28;20158;-76
2021/04/02 07:37:40;;;;;;;6.87;1.50;;;5.90;86.40;;;;;;5077327;28;20017;-77
2021/04/02 07:40:10;;;;;;;12.13;1.70;;;6.00;86.40;;;;;;5077565;28;20039;-77
2021/04/02 07:42:37;;;;;;;9.23;1.60;;;6.10;85.80;;;;;;5095601;28;20016;-77
2021/04/02 07:45:05;;;;;;;8.10;2.10;;;6.40;85.60;;;;;;5095329;28;20107;-77
2021/04/02 07:47:31;;;;;;;9.50;1.57;;;6.40;84.50;;;;;;5095649;28;20051;-76
2021/04/02 07:50:01;;;;;;;9.93;1.83;;;6.50;84.10;;;;;;5077128;28;20479;-77
2021/04/02 07:52:40;;;;;;;5.17;1.33;;;6.70;83.80;;;;;;5095304;28;20030;-77
2021/04/02 07:55:08;;;;;;;10.17;1.67;;;6.80;83.30;;;;;;5076769;28;20100;-77
2021/04/02 07:58:02;;;;;;;7.97;1.67;;;6.90;83.60;;;;;;5094903;28;20408;-77
2021/04/02 08:00:31;;;;;;;7.57;1.10;;;7.00;82.20;;;;;;5094093;28;20016;-77
2021/04/02 08:03:14;;;;;;;9.73;1.83;;;7.10;81.50;;;;;;5095364;28;20016;-77
2021/04/02 08:05:54;;;;;;;10.67;1.50;;;7.20;80.60;;;;;;5066631;28;20024;-77
2021/04/02 08:08:20;;;;;;;7.20;1.10;;;7.20;80.50;;;;;;5084859;28;20168;-77
2021/04/02 08:11:29;;;;;;;9.70;1.80;;;7.40;80.30;;;;;;5080990;28;20020;-77
2021/04/02 08:13:57;;;;;;;11.30;1.80;;;7.50;79.80;;;;;;4993163;28;20042;-77
2021/04/02 08:16:43;;;;;;;9.17;1.90;;;7.60;79.00;;;;;;5063348;28;20107;-77
2021/04/02 08:19:18;;;;;;;11.27;1.80;;;7.80;78.60;;;;;;5095095;28;20024;-77
2021/04/02 08:21:50;;;;;;;6.20;1.40;;;7.90;77.90;;;;;;5095059;28;20085;-77
2021/04/02 08:24:18;;;;;;;10.47;1.80;;;7.90;76.90;;;;;;5095231;28;20032;-77
2021/04/02 08:26:45;;;;;;;7.77;1.60;;;7.90;76.50;;;;;;5094988;28;20480;-77
2021/04/02 08:29:13;;;;;;;10.73;1.53;;;8.00;76.20;;;;;;5094705;28;20032;-77
2021/04/02 08:31:48;;;;;;;6.43;1.53;;;8.10;75.30;;;;;;5076639;28;20024;-77
2021/04/02 08:34:17;;;;;;;13.57;1.73;;;8.10;74.70;;;;;;5076728;28;20022;-78
2021/04/02 08:36:45;;;;;;;11.90;1.83;;;8.20;74.00;;;;;;5076700;28;20020;-77
2021/04/02 08:39:10;;;;;;;6.17;1.37;;;8.20;73.30;;;;;;5094459;28;20415;-77
2021/04/02 08:41:36;;;;;;;8.43;1.40;;;8.40;73.20;;;;;;5076521;28;20123;-78
2021/04/02 08:44:03;;;;;;;10.20;1.33;;;8.50;72.30;;;;;;5077046;28;20035;-77
2021/04/02 08:46:33;;;;;;;4.97;1.60;;;8.60;71.70;;;;;;5059816;28;20024;-77
2021/04/02 08:48:59;;;;;;;7.57;1.40;;;8.70;71.80;;;;;;5076159;28;20017;-77
2021/04/02 08:51:24;;;;;;;8.23;1.53;;;8.80;71.80;;;;;;5076294;28;20035;-76
2021/04/02 08:53:50;;;;;;;8.60;1.83;;;8.80;71.10;;;;;;5076171;28;20020;-77
2021/04/02 08:56:18;;;;;;;7.73;1.50;;;8.70;70.90;;;;;;5059538;28;20028;-77
2021/04/02 08:58:45;;;;;;;6.60;1.10;;;8.80;70.20;;;;;;5076400;28;20040;-77
2021/04/02 09:01:13;;;;;;;6.53;1.00;;;8.70;70.20;;;;;;5076482;28;20039;-78
2021/04/02 09:03:40;;;;;;;5.43;0.90;;;8.70;70.00;;;;;;5094309;28;20463;-77
2021/04/02 09:06:06;;;;;;;10.93;1.20;;;8.70;69.90;;;;;;5094429;28;20379;-77
2021/04/02 09:08:36;;;;;;;5.00;1.00;;;8.80;69.90;;;;;;5075774;28;20047;-77
2021/04/02 09:11:04;;;;;;;8.10;1.30;;;8.90;70.10;;;;;;5075747;28;20036;-77
2021/04/02 09:13:39;;;;;;;5.67;1.20;;;8.90;70.00;;;;;;5075756;28;20055;-77
2021/04/02 09:16:15;;;;;;;9.00;1.97;;;8.90;69.20;;;;;;5093972;28;20024;-77
2021/04/02 09:18:49;;;;;;;7.90;1.67;;;8.90;68.30;;;;;;5093962;28;20017;-77
2021/04/02 09:21:15;;;;;;;7.68;1.20;;;8.90;68.30;;;;;;5075663;28;20141;-78
2021/04/02 09:23:41;;;;;;;7.20;1.03;;;8.90;67.70;;;;;;5059251;28;20023;-77
2021/04/02 09:26:09;;;;;;;7.00;1.03;;;8.90;67.70;;;;;;5067027;28;20039;-77
2021/04/02 09:28:37;;;;;;;5.73;1.10;;;8.90;67.60;;;;;;5052929;28;20363;-77
2021/04/02 09:31:16;;;;;;;7.73;1.30;;;8.80;67.30;;;;;;5089444;28;20028;-77
2021/04/02 09:33:44;;;;;;;4.60;0.90;;;8.80;67.00;;;;;;5072981;28;20082;-77
2021/04/02 09:36:11;;;;;;;6.50;1.03;;;8.90;66.90;;;;;;5064941;28;20479;-77
2021/04/02 09:38:37;;;;;;;6.93;1.43;;;8.90;66.80;;;;;;5066458;28;20020;-73
2021/04/02 09:41:03;;;;;;;9.27;2.10;;;8.90;66.50;;;;;;5073343;28;20035;-73
2021/04/02 09:43:51;;;;;;;10.10;1.53;;;9.00;66.50;;;;;;5092261;28;20098;-73
2021/04/02 09:46:37;;;;;;;10.43;1.77;;;9.00;66.20;;;;;;5081310;28;20372;-73
2021/04/02 09:49:12;;;;;;;7.70;1.63;;;9.10;66.20;;;;;;5071750;28;20123;-74
2021/04/02 09:51:55;;;;;;;8.53;1.67;;;9.10;65.90;;;;;;5085546;28;20031;-74
2021/04/02 09:54:24;;;;;;;6.50;1.73;;;9.20;65.70;;;;;;5070292;28;20077;-74
2021/04/02 09:56:50;;;;;;;8.10;2.20;;;9.30;65.30;;;;;;5092510;28;20012;-73
2021/04/02 09:59:16;;;;;;;9.87;2.00;;;9.30;64.80;;;;;;5073939;28;20028;-72
2021/04/02 10:01:43;;;;;;;9.97;2.47;;;9.40;64.00;;;;;;5075214;28;20034;-73
2021/04/02 10:04:10;;;;;;;8.10;1.90;;;9.50;64.10;;;;;;5054765;28;20112;-74
2021/04/02 10:06:37;;;;;;;8.40;1.97;;;9.50;64.00;;;;;;5074028;28;20021;-72
2021/04/02 10:09:07;;;;;;;6.07;1.63;;;9.60;63.80;;;;;;5093073;28;20062;-71
2021/04/02 10:11:35;;;;;;;12.87;1.67;;;9.60;64.20;;;;;;5075177;28;20028;-72
2021/04/02 10:14:01;;;;;;;7.50;1.67;;;9.60;63.60;;;;;;5092788;28;20020;-73
2021/04/02 10:16:27;;;;;;;9.73;1.33;;;9.50;63.80;;;;;;5093102;28;20024;-73
2021/04/02 10:18:53;;;;;;;7.20;1.77;;;9.70;62.80;;;;;;5075073;28;20545;-75
2021/04/02 10:21:21;;;;;;;7.07;1.30;;;9.60;62.80;;;;;;5093214;28;20016;-77
2021/04/02 10:23:47;;;;;;;8.83;1.80;;;9.70;63.00;;;;;;5075107;28;20024;-78
2021/04/02 10:26:13;;;;;;;7.00;1.33;;;9.80;62.60;;;;;;5093190;28;20498;-76
2021/04/02 10:28:39;;;;;;;5.77;1.53;;;9.90;62.70;;;;;;5058635;28;20044;-77
2021/04/02 10:31:05;;;;;;;6.37;1.70;;;10.10;62.40;;;;;;5075037;28;20487;-77
2021/04/02 10:33:31;;;;;;;4.90;1.20;;;10.20;62.00;;;;;;5093020;28;20020;-77
2021/04/02 10:35:57;;;;;;;4.27;1.00;;;10.50;61.70;;;;;;5074750;28;20039;-77
2021/04/02 10:38:23;;;;;;;7.20;1.17;;;10.60;60.80;;;;;;5058378;28;20128;-76
2021/04/02 10:40:49;;;;;;;5.87;1.57;;;10.60;60.50;;;;;;5093475;28;20058;-77
2021/04/02 10:43:15;;;;;;;8.07;1.10;;;10.70;60.20;;;;;;5093035;28;20024;-77
2021/04/02 10:45:41;;;;;;;4.37;1.00;;;10.80;59.90;;;;;;5074803;28;20082;-77
2021/04/02 10:48:07;;;;;;;6.90;1.47;;;10.90;59.80;;;;;;5092920;28;20028;-76
2021/04/02 10:50:34;;;;;;;8.10;1.40;;;11.00;59.40;;;;;;5074962;28;20030;-77
2021/04/02 10:53:00;;;;;;;9.83;1.50;;;11.00;59.00;;;;;;5095154;28;20028;-77
2021/04/02 10:55:26;;;;;;;5.67;1.30;;;11.00;59.20;;;;;;5079004;28;20401;-74
2021/04/02 10:57:51;;;;;;;9.00;1.00;;;11.10;59.10;;;;;;5078385;28;20028;-75
2021/04/02 11:00:19;;;;;;;8.73;1.33;;;11.10;58.60;;;;;;5078034;28;20016;-74
2021/04/02 11:02:45;;;;;;;8.67;1.33;;;11.10;58.10;;;;;;5078384;28;20113;-74
2021/04/02 11:05:11;;;;;;;7.47;1.17;;;11.20;58.20;;;;;;5078497;28;20406;-74
2021/04/02 11:07:38;;;;;;;7.93;1.10;;;11.20;58.10;;;;;;5096075;28;20076;-75
2021/04/02 11:10:09;;;;;;;5.75;0.90;;;11.80;59.50;;;;;;5078257;28;20093;-75
2021/04/02 11:12:36;;;;;;;4.82;0.70;;;12.60;59.30;;;;;;5078833;28;20047;-77
2021/04/02 11:15:02;;;;;;;7.82;0.90;;;13.00;56.70;;;;;;5096471;28;20032;-76
2021/04/02 11:17:28;;;;;;;6.53;1.10;;;13.10;54.60;;;;;;5095810;28;20085;-75
2021/04/02 11:19:55;;;;;;;5.13;0.70;;;13.10;53.90;;;;;;5061100;28;20471;-74
2021/04/02 11:22:22;;;;;;;5.63;0.98;;;13.00;53.30;;;;;;5095253;28;20085;-75
2021/04/02 11:24:48;;;;;;;11.63;0.90;;;13.10;53.30;;;;;;5077695;28;20043;-75
2021/04/02 11:27:14;;;;;;;7.57;1.30;;;13.10;52.30;;;;;;5096098;28;20059;-76
2021/04/02 11:29:40;;;;;;;6.57;1.13;;;13.00;52.10;;;;;;5095790;28;20089;-75
2021/04/02 11:32:10;;;;;;;7.15;0.77;;;13.00;52.40;;;;;;5095758;28;20040;-76
2021/04/02 11:34:37;;;;;;;6.25;1.33;;;13.10;52.90;;;;;;5095481;28;20031;-77
2021/04/02 11:37:06;;;;;;;4.60;0.70;;;13.20;53.00;;;;;;5078070;28;20028;-77
2021/04/02 11:39:33;;;;;;;5.97;0.95;;;13.20;53.00;;;;;;5094602;28;20031;-77
2021/04/02 11:41:59;;;;;;;7.30;0.75;;;13.40;52.90;;;;;;5060045;28;20069;-76
2021/04/02 11:44:25;;;;;;;7.47;0.90;;;13.40;52.70;;;;;;5077600;28;20040;-75
2021/04/02 11:46:53;;;;;;;5.40;0.60;;;13.60;52.90;;;;;;5077525;28;20035;-76
2021/04/02 11:49:19;;;;;;;11.07;1.45;;;13.80;52.70;;;;;;5095869;28;20031;-76
2021/04/02 11:51:45;;;;;;;5.38;0.68;;;14.00;52.50;;;;;;5077656;28;20501;-76
2021/04/02 11:54:11;;;;;;;6.63;0.80;;;14.10;52.10;;;;;;5095386;28;20024;-76
2021/04/02 11:56:37;;;;;;;7.60;1.73;;;14.30;51.90;;;;;;5095323;28;20028;-76
2021/04/02 11:59:03;;;;;;;6.75;0.80;;;14.40;51.60;;;;;;5095334;28;20416;-76
2021/04/02 12:01:28;;;;;;;4.18;0.82;;;14.60;51.20;;;;;;5060482;28;20537;-76
2021/04/02 12:03:54;;;;;;;7.68;1.13;;;14.70;50.90;;;;;;5077103;28;20016;-77
2021/04/02 12:06:20;;;;;;;6.53;0.95;;;14.80;50.70;;;;;;5077494;28;20032;-78
2021/04/02 12:08:46;;;;;;;4.38;0.65;;;14.80;50.40;;;;;;5044182;28;20028;-77
2021/04/02 12:11:12;;;;;;;6.18;0.90;;;14.80;50.30;;;;;;5095252;28;20032;-76
2021/04/02 12:13:37;;;;;;;5.22;0.77;;;14.80;50.90;;;;;;5077414;28;20032;-77
2021/04/02 12:16:04;;;;;;;10.32;1.33;;;14.90;50.20;;;;;;5077114;28;20066;-77
2021/04/02 12:18:29;;;;;;;3.97;0.73;;;14.90;49.90;;;;;;5077063;28;20025;-77
2021/04/02 12:20:55;;;;;;;7.40;0.70;;;14.90;49.90;;;;;;5076560;28;20020;-76
2021/04/02 12:23:21;;;;;;;5.07;0.63;;;14.90;49.50;;;;;;5076413;28;20107;-77
2021/04/02 12:25:47;;;;;;;7.93;1.05;;;14.90;49.30;;;;;;5095066;28;20119;-76
2021/04/02 12:28:13;;;;;;;6.20;0.93;;;15.00;49.20;;;;;;5077060;28;20111;-77
2021/04/02 12:30:39;;;;;;;8.00;0.70;;;15.00;49.10;;;;;;5094896;28;20065;-76
2021/04/02 12:33:05;;;;;;;4.05;0.52;;;14.90;48.90;;;;;;5094925;28;20031;-77
2021/04/02 12:35:32;;;;;;;4.32;0.63;;;14.80;48.80;;;;;;5076384;28;20032;-76
2021/04/02 12:37:57;;;;;;;6.50;1.15;;;14.80;48.70;;;;;;5076538;28;20028;-76
2021/04/02 12:40:24;;;;;;;11.55;1.20;;;14.80;48.60;;;;;;5094914;28;20027;-83
2021/04/02 12:42:50;;;;;;;6.75;1.13;;;14.90;48.60;;;;;;5094399;28;20062;-76
2021/04/02 12:45:16;;;;;;;4.93;0.90;;;14.80;48.60;;;;;;5076318;28;20052;-76
2021/04/02 12:47:42;;;;;;;7.60;0.90;;;14.80;48.50;;;;;;5094511;28;20032;-76
2021/04/02 12:50:18;;;;;;;5.63;0.90;;;14.70;48.50;;;;;;5076403;28;20026;-73
2021/04/02 12:52:45;;;;;;;5.85;0.70;;;14.70;48.30;;;;;;5076404;28;20427;-73
2021/04/02 12:55:13;;;;;;;9.43;1.17;;;14.70;48.60;;;;;;5086012;28;20116;-73
2021/04/02 12:57:39;;;;;;;7.95;0.82;;;14.70;48.90;;;;;;5055355;28;20028;-76
2021/04/02 13:00:09;;;;;;;11.20;1.08;;;14.60;48.80;;;;;;5089941;28;20031;-76